createdAt,value
2018-07-21T00:00:48.450Z,7.60
2018-07-21T00:01:48.466Z,7.80
2018-07-21T00:02:48.478Z,8.60
2018-07-21T00:03:48.501Z,8.70
2018-07-21T00:04:48.569Z,8.30
2018-07-21T00:05:48.527Z,8.30
2018-07-21T00:06:48.543Z,8.20
2018-07-21T00:07:48.571Z,8.30
2018-07-21T00:08:48.571Z,8.50
2018-07-21T00:09:48.600Z,8.80
2018-07-21T00:10:48.655Z,8.50
2018-07-21T00:11:48.630Z,8.60
2018-07-21T00:12:48.641Z,8.20
2018-07-21T00:13:48.647Z,8.40
2018-07-21T00:14:48.677Z,8.00
2018-07-21T00:15:48.683Z,7.90
2018-07-21T00:16:48.747Z,8.00
2018-07-21T00:17:48.720Z,8.30
2018-07-21T00:18:48.733Z,8.40
2018-07-21T00:19:48.762Z,8.30
2018-07-21T00:20:48.819Z,8.50
2018-07-21T00:21:48.788Z,8.60
2018-07-21T00:22:48.848Z,8.50
2018-07-21T00:23:48.816Z,8.20
2018-07-21T00:24:48.834Z,8.20
2018-07-21T00:25:48.850Z,8.00
2018-07-21T00:26:48.914Z,8.10
2018-07-21T00:27:48.885Z,8.70
2018-07-21T00:28:48.953Z,8.40
2018-07-21T00:29:48.917Z,8.30
2018-07-21T00:30:48.942Z,7.80
2018-07-21T00:31:48.950Z,8.20
2018-07-21T00:32:49.000Z,8.60
2018-07-21T00:33:48.986Z,8.70
2018-07-21T00:34:49.054Z,8.50
2018-07-21T00:35:49.013Z,9.00
2018-07-21T00:36:49.025Z,8.20
2018-07-21T00:37:49.042Z,8.40
2018-07-21T00:38:49.105Z,8.00
2018-07-21T00:39:49.089Z,8.10
2018-07-21T00:40:49.152Z,8.40
2018-07-21T00:41:49.121Z,8.70
2018-07-21T00:42:49.134Z,8.80
2018-07-21T00:43:49.142Z,8.50
2018-07-21T00:44:49.212Z,8.30
2018-07-21T00:45:49.177Z,8.80
2018-07-21T00:46:49.190Z,8.50
2018-07-21T00:47:49.202Z,8.80
2018-07-21T00:48:49.225Z,8.30
2018-07-21T00:49:49.270Z,8.20
2018-07-21T00:50:49.286Z,8.70
2018-07-21T00:51:49.274Z,8.20
2018-07-21T00:52:49.372Z,8.70
2018-07-21T00:53:49.314Z,8.40
2018-07-21T00:54:49.316Z,9.20
2018-07-21T00:55:49.336Z,8.40
2018-07-21T00:56:49.348Z,9.10
2018-07-21T00:57:49.365Z,8.60
2018-07-21T00:58:49.435Z,8.80
2018-07-21T00:59:49.406Z,8.80
2018-07-21T01:00:49.412Z,8.60
2018-07-21T01:01:49.432Z,9.10
2018-07-21T01:02:49.440Z,7.80
2018-07-21T01:03:49.462Z,8.40
2018-07-21T01:04:49.486Z,8.80
2018-07-21T01:05:49.492Z,8.80
2018-07-21T01:06:49.515Z,8.50
2018-07-21T01:07:49.534Z,8.70
2018-07-21T01:08:49.611Z,9.10
2018-07-21T01:09:49.566Z,8.90
2018-07-21T01:10:49.583Z,8.80
2018-07-21T01:11:49.593Z,9.20
2018-07-21T01:12:49.605Z,9.00
2018-07-21T01:13:49.630Z,8.70
2018-07-21T01:14:49.680Z,9.10
2018-07-21T01:15:49.657Z,9.80
2018-07-21T01:16:49.672Z,9.20
2018-07-21T01:17:49.689Z,9.00
2018-07-21T01:18:49.707Z,8.60
2018-07-21T01:19:49.731Z,9.10
2018-07-21T01:20:49.759Z,8.70
2018-07-21T01:21:49.755Z,9.50
2018-07-21T01:22:49.822Z,9.30
2018-07-21T01:23:49.788Z,9.00
2018-07-21T01:24:49.808Z,8.80
2018-07-21T01:25:49.827Z,9.30
2018-07-21T01:26:49.858Z,9.40
2018-07-21T01:27:49.856Z,9.90
2018-07-21T01:28:49.921Z,9.70
2018-07-21T01:29:49.882Z,9.50
2018-07-21T01:30:49.904Z,9.40
2018-07-21T01:31:49.927Z,9.20
2018-07-21T01:32:50.020Z,9.80
2018-07-21T01:33:49.955Z,9.00
2018-07-21T01:34:50.018Z,9.50
2018-07-21T01:35:49.985Z,9.50
2018-07-21T01:36:50.004Z,8.80
2018-07-21T01:37:50.018Z,9.00
2018-07-21T01:38:50.089Z,9.60
2018-07-21T01:39:50.082Z,9.70
2018-07-21T01:40:50.124Z,8.90
2018-07-21T01:41:50.148Z,9.40
2018-07-21T01:42:50.148Z,10.40
2018-07-21T01:43:50.134Z,9.40
2018-07-21T01:44:50.140Z,9.70
2018-07-21T01:45:50.148Z,9.30
2018-07-21T01:46:50.213Z,9.10
2018-07-21T01:47:50.178Z,8.50
2018-07-21T01:48:50.204Z,9.00
2018-07-21T01:49:50.213Z,9.70
2018-07-21T01:50:50.237Z,9.20
2018-07-21T01:51:50.250Z,9.70
2018-07-21T01:52:50.258Z,9.20
2018-07-21T01:53:50.277Z,9.30
2018-07-21T01:54:50.300Z,9.00
2018-07-21T01:55:50.314Z,9.00
2018-07-21T01:56:50.325Z,9.40
2018-07-21T01:57:50.343Z,9.60
2018-07-21T01:58:50.356Z,9.30
2018-07-21T01:59:50.380Z,9.70
2018-07-21T02:00:50.392Z,9.10
2018-07-21T02:01:50.408Z,9.10
2018-07-21T02:02:50.424Z,10.60
2018-07-21T02:03:50.442Z,9.00
2018-07-21T02:04:50.510Z,9.80
2018-07-21T02:05:50.474Z,9.70
2018-07-21T02:06:50.486Z,8.90
2018-07-21T02:07:50.502Z,9.90
2018-07-21T02:08:50.524Z,9.90
2018-07-21T02:09:50.536Z,9.50
2018-07-21T02:10:50.602Z,9.60
2018-07-21T02:11:50.576Z,9.90
2018-07-21T02:12:50.592Z,9.30
2018-07-21T02:13:50.604Z,10.00
2018-07-21T02:14:50.621Z,9.00
2018-07-21T02:15:50.646Z,9.70
2018-07-21T02:16:50.661Z,9.10
2018-07-21T02:17:50.667Z,10.20
2018-07-21T02:18:50.687Z,9.70
2018-07-21T02:19:50.699Z,9.20
2018-07-21T02:20:50.719Z,9.50
2018-07-21T02:21:50.734Z,9.50
2018-07-21T02:22:50.804Z,9.80
2018-07-21T02:23:50.802Z,8.80
2018-07-21T02:24:50.789Z,10.10
2018-07-21T02:25:50.803Z,9.60
2018-07-21T02:26:50.871Z,9.30
2018-07-21T02:27:50.833Z,9.20
2018-07-21T02:28:50.908Z,9.40
2018-07-21T02:29:50.866Z,9.60
2018-07-21T02:30:50.882Z,9.30
2018-07-21T02:31:50.898Z,9.20
2018-07-21T02:32:50.923Z,8.60
2018-07-21T02:33:50.930Z,9.70
2018-07-21T02:34:51.005Z,9.20
2018-07-21T02:35:50.968Z,9.80
2018-07-21T02:36:50.980Z,9.30
2018-07-21T02:37:50.990Z,9.20
2018-07-21T02:38:51.012Z,9.50
2018-07-21T02:39:51.028Z,9.50
2018-07-21T02:40:51.050Z,9.50
2018-07-21T02:41:51.060Z,9.10
2018-07-21T02:42:51.081Z,9.10
2018-07-21T02:43:51.113Z,9.90
2018-07-21T02:44:51.121Z,9.50
2018-07-21T02:45:51.126Z,9.60
2018-07-21T02:46:51.152Z,9.50
2018-07-21T02:47:51.169Z,9.00
2018-07-21T02:48:51.189Z,9.90
2018-07-21T02:49:51.192Z,9.80
2018-07-21T02:50:51.213Z,9.50
2018-07-21T02:51:51.237Z,9.70
2018-07-21T02:52:51.296Z,9.50
2018-07-21T02:53:51.255Z,9.80
2018-07-21T02:54:51.277Z,9.70
2018-07-21T02:55:51.286Z,9.90
2018-07-21T02:56:51.323Z,9.50
2018-07-21T02:57:51.379Z,9.00
2018-07-21T02:58:51.394Z,9.20
2018-07-21T02:59:51.360Z,9.30
2018-07-21T03:00:51.371Z,9.10
2018-07-21T03:01:51.383Z,9.40
2018-07-21T03:02:51.406Z,9.30
2018-07-21T03:03:51.421Z,9.60
2018-07-21T03:04:51.440Z,9.90
2018-07-21T03:05:51.460Z,8.90
2018-07-21T03:06:51.480Z,9.40
2018-07-21T03:07:51.491Z,9.40
2018-07-21T03:08:51.510Z,9.60
2018-07-21T03:09:51.535Z,9.70
2018-07-21T03:10:51.541Z,9.40
2018-07-21T03:11:51.560Z,9.90
2018-07-21T03:12:51.569Z,9.00
2018-07-21T03:13:51.593Z,9.40
2018-07-21T03:14:51.603Z,9.80
2018-07-21T03:15:51.625Z,9.30
2018-07-21T03:16:51.689Z,10.10
2018-07-21T03:17:51.655Z,9.60
2018-07-21T03:18:51.674Z,9.60
2018-07-21T03:19:51.688Z,9.60
2018-07-21T03:20:51.702Z,9.30
2018-07-21T03:21:51.717Z,9.20
2018-07-21T03:22:51.736Z,9.00
2018-07-21T03:23:51.750Z,9.20
2018-07-21T03:24:51.758Z,9.40
2018-07-21T03:25:51.786Z,9.00
2018-07-21T03:26:51.797Z,9.30
2018-07-21T03:27:51.811Z,9.50
2018-07-21T03:28:51.879Z,9.80
2018-07-21T03:29:51.845Z,9.00
2018-07-21T03:30:51.873Z,9.20
2018-07-21T03:31:51.882Z,8.80
2018-07-21T03:32:51.895Z,8.80
2018-07-21T03:33:51.946Z,8.90
2018-07-21T03:34:51.985Z,8.90
2018-07-21T03:35:51.943Z,9.10
2018-07-21T03:36:51.965Z,9.40
2018-07-21T03:37:51.985Z,8.90
2018-07-21T03:38:52.001Z,9.10
2018-07-21T03:39:52.013Z,9.00
2018-07-21T03:40:52.076Z,8.90
2018-07-21T03:41:52.042Z,8.70
2018-07-21T03:42:52.069Z,8.30
2018-07-21T03:43:52.081Z,8.80
2018-07-21T03:44:52.087Z,8.90
2018-07-21T03:45:52.142Z,8.80
2018-07-21T03:46:52.123Z,8.90
2018-07-21T03:47:52.145Z,8.20
2018-07-21T03:48:52.157Z,8.60
2018-07-21T03:49:52.170Z,7.80
2018-07-21T03:50:52.183Z,8.00
2018-07-21T03:51:52.219Z,8.30
2018-07-21T03:52:52.330Z,8.30
2018-07-21T03:53:52.242Z,8.40
2018-07-21T03:54:52.254Z,8.50
2018-07-21T03:55:52.271Z,8.00
2018-07-21T03:56:52.285Z,8.20
2018-07-21T03:57:52.345Z,8.10
2018-07-21T03:58:52.315Z,8.00
2018-07-21T03:59:52.333Z,7.70
2018-07-21T04:00:52.354Z,8.50
2018-07-21T04:01:52.373Z,8.20
2018-07-21T04:02:52.387Z,8.20
2018-07-21T04:03:52.401Z,7.60
2018-07-21T04:04:52.496Z,7.70
2018-07-21T04:05:52.429Z,8.40
2018-07-21T04:06:52.457Z,8.30
2018-07-21T04:07:52.463Z,8.60
2018-07-21T04:08:52.593Z,8.30
2018-07-21T04:09:52.499Z,8.10
2018-07-21T04:10:52.536Z,8.10
2018-07-21T04:11:52.531Z,8.10
2018-07-21T04:12:52.540Z,9.00
2018-07-21T04:13:52.560Z,8.20
2018-07-21T04:14:52.582Z,8.70
2018-07-21T04:15:52.597Z,8.60
2018-07-21T04:16:52.755Z,8.00
2018-07-21T04:17:52.630Z,8.20
2018-07-21T04:18:52.644Z,8.80
2018-07-21T04:19:52.658Z,7.80
2018-07-21T04:20:52.674Z,8.30
2018-07-21T04:21:52.684Z,8.10
2018-07-21T04:22:52.756Z,7.70
2018-07-21T04:23:52.719Z,8.40
2018-07-21T04:24:52.737Z,7.80
2018-07-21T04:25:52.756Z,8.40
2018-07-21T04:26:52.768Z,8.60
2018-07-21T04:27:52.785Z,8.30
2018-07-21T04:28:52.806Z,7.90
2018-07-21T04:29:52.818Z,7.50
2018-07-21T04:30:52.832Z,7.80
2018-07-21T04:31:52.851Z,8.10
2018-07-21T04:32:52.866Z,7.60
2018-07-21T04:33:52.879Z,7.90
2018-07-21T04:34:52.956Z,7.70
2018-07-21T04:35:52.922Z,7.70
2018-07-21T04:36:52.932Z,7.50
2018-07-21T04:37:52.950Z,7.80
2018-07-21T04:38:52.972Z,7.30
2018-07-21T04:39:52.980Z,7.70
2018-07-21T04:40:53.056Z,7.80
2018-07-21T04:41:53.021Z,7.70
2018-07-21T04:42:53.034Z,7.40
2018-07-21T04:43:53.043Z,7.40
2018-07-21T04:44:53.066Z,7.90
2018-07-21T04:45:53.082Z,8.10
2018-07-21T04:46:53.097Z,7.70
2018-07-21T04:47:53.114Z,7.10
2018-07-21T04:48:53.128Z,7.50
2018-07-21T04:49:53.140Z,7.40
2018-07-21T04:50:53.152Z,7.50
2018-07-21T04:51:53.178Z,8.00
2018-07-21T04:52:53.246Z,7.80
2018-07-21T04:53:53.256Z,7.40
2018-07-21T04:54:53.224Z,7.80
2018-07-21T04:55:53.238Z,7.50
2018-07-21T04:56:53.256Z,7.50
2018-07-21T04:57:53.270Z,7.50
2018-07-21T04:58:53.283Z,7.80
2018-07-21T04:59:53.322Z,7.20
2018-07-21T05:00:53.452Z,7.80
2018-07-21T05:01:53.328Z,7.00
2018-07-21T05:02:53.352Z,7.80
2018-07-21T05:03:53.363Z,7.40
2018-07-21T05:04:53.386Z,7.70
2018-07-21T05:05:53.399Z,7.40
2018-07-21T05:06:53.415Z,7.70
2018-07-21T05:07:53.434Z,7.50
2018-07-21T05:08:53.444Z,7.80
2018-07-21T05:09:53.466Z,8.00
2018-07-21T05:10:53.531Z,7.70
2018-07-21T05:11:53.492Z,7.30
2018-07-21T05:12:53.508Z,7.90
2018-07-21T05:13:53.530Z,7.60
2018-07-21T05:14:53.551Z,8.00
2018-07-21T05:15:53.569Z,7.40
2018-07-21T05:16:53.628Z,8.10
2018-07-21T05:17:53.592Z,7.70
2018-07-21T05:18:53.624Z,7.60
2018-07-21T05:19:53.627Z,7.40
2018-07-21T05:20:53.635Z,7.50
2018-07-21T05:21:53.661Z,7.70
2018-07-21T05:22:53.722Z,7.10
2018-07-21T05:23:53.696Z,7.50
2018-07-21T05:24:53.753Z,7.40
2018-07-21T05:25:53.720Z,7.50
2018-07-21T05:26:53.732Z,7.80
2018-07-21T05:27:53.755Z,7.70
2018-07-21T05:28:53.825Z,7.60
2018-07-21T05:29:53.782Z,7.80
2018-07-21T05:30:53.912Z,7.60
2018-07-21T05:31:53.818Z,7.80
2018-07-21T05:32:53.828Z,7.20
2018-07-21T05:33:53.853Z,8.00
2018-07-21T05:34:53.868Z,7.90
2018-07-21T05:35:53.887Z,8.00
2018-07-21T05:36:53.982Z,7.90
2018-07-21T05:37:53.907Z,7.60
2018-07-21T05:38:53.929Z,7.70
2018-07-21T05:39:54.005Z,7.60
2018-07-21T05:40:53.964Z,7.50
2018-07-21T05:41:53.975Z,7.50
2018-07-21T05:42:54.043Z,7.90
2018-07-21T05:43:54.018Z,8.10
2018-07-21T05:44:54.030Z,8.10
2018-07-21T05:45:54.040Z,8.00
2018-07-21T05:46:54.063Z,7.60
2018-07-21T05:47:54.077Z,8.30
2018-07-21T05:48:54.098Z,7.90
2018-07-21T05:49:54.113Z,7.80
2018-07-21T05:50:54.123Z,8.10
2018-07-21T05:51:54.140Z,8.30
2018-07-21T05:52:54.158Z,7.90
2018-07-21T05:53:54.169Z,8.40
2018-07-21T05:54:54.236Z,8.10
2018-07-21T05:55:54.196Z,8.30
2018-07-21T05:56:54.214Z,7.80
2018-07-21T05:57:54.290Z,8.00
2018-07-21T05:58:54.244Z,7.80
2018-07-21T05:59:54.267Z,8.20
2018-07-21T06:00:54.282Z,8.60
2018-07-21T06:01:54.303Z,7.90
2018-07-21T06:02:54.363Z,8.20
2018-07-21T06:03:54.378Z,8.00
2018-07-21T06:04:54.348Z,8.50
2018-07-21T06:05:54.367Z,8.60
2018-07-21T06:06:54.378Z,8.10
2018-07-21T06:07:54.400Z,8.40
2018-07-21T06:08:54.408Z,8.40
2018-07-21T06:09:54.485Z,8.40
2018-07-21T06:10:54.451Z,8.40
2018-07-21T06:11:54.460Z,8.70
2018-07-21T06:12:54.476Z,8.80
2018-07-21T06:13:54.490Z,8.70
2018-07-21T06:14:54.510Z,8.50
2018-07-21T06:15:54.527Z,8.60
2018-07-21T06:16:54.602Z,8.40
2018-07-21T06:17:54.556Z,7.90
2018-07-21T06:18:54.574Z,8.40
2018-07-21T06:19:54.631Z,8.10
2018-07-21T06:20:54.604Z,8.30
2018-07-21T06:21:54.624Z,7.90
2018-07-21T06:22:54.639Z,8.50
2018-07-21T06:23:54.653Z,8.10
2018-07-21T06:24:54.675Z,9.00
2018-07-21T06:25:54.718Z,7.80
2018-07-21T06:26:54.703Z,7.90
2018-07-21T06:27:54.787Z,8.00
2018-07-21T06:28:54.735Z,8.00
2018-07-21T06:29:54.744Z,7.90
2018-07-21T06:30:54.768Z,8.20
2018-07-21T06:31:54.792Z,8.60
2018-07-21T06:32:54.831Z,7.80
2018-07-21T06:33:54.871Z,7.90
2018-07-21T06:34:54.828Z,8.20
2018-07-21T06:35:54.844Z,8.20
2018-07-21T06:36:54.866Z,8.30
2018-07-21T06:37:54.883Z,7.90
2018-07-21T06:38:54.897Z,8.40
2018-07-21T06:39:54.959Z,8.10
2018-07-21T06:40:54.927Z,8.20
2018-07-21T06:41:54.945Z,8.20
2018-07-21T06:42:54.960Z,7.80
2018-07-21T06:43:55.039Z,8.60
2018-07-21T06:44:54.984Z,8.10
2018-07-21T06:45:55.015Z,8.00
2018-07-21T06:46:55.027Z,8.00
2018-07-21T06:47:55.044Z,8.10
2018-07-21T06:48:55.059Z,8.00
2018-07-21T06:49:55.079Z,7.90
2018-07-21T06:50:55.093Z,8.00
2018-07-21T06:51:55.108Z,8.50
2018-07-21T06:52:55.124Z,8.10
2018-07-21T06:53:55.137Z,8.00
2018-07-21T06:54:55.165Z,8.30
2018-07-21T06:55:55.182Z,8.20
2018-07-21T06:56:55.189Z,7.80
2018-07-21T06:57:55.200Z,7.80
2018-07-21T06:58:55.230Z,8.20
2018-07-21T06:59:55.241Z,7.70
2018-07-21T07:00:55.253Z,8.20
2018-07-21T07:01:55.272Z,8.10
2018-07-21T07:02:55.295Z,8.00
2018-07-21T07:03:55.355Z,7.70
2018-07-21T07:04:55.323Z,7.80
2018-07-21T07:05:55.333Z,7.70
2018-07-21T07:06:55.355Z,7.50
2018-07-21T07:07:55.374Z,7.60
2018-07-21T07:08:55.395Z,7.30
2018-07-21T07:09:55.400Z,7.70
2018-07-21T07:10:55.422Z,7.30
2018-07-21T07:11:55.453Z,7.20
2018-07-21T07:12:55.455Z,7.10
2018-07-21T07:13:55.473Z,7.40
2018-07-21T07:14:55.495Z,7.20
2018-07-21T07:15:55.563Z,7.40
2018-07-21T07:16:55.517Z,6.80
2018-07-21T07:17:55.541Z,7.00
2018-07-21T07:18:55.556Z,7.00
2018-07-21T07:19:55.575Z,7.20
2018-07-21T07:20:55.673Z,7.30
2018-07-21T07:21:55.659Z,6.90
2018-07-21T07:22:55.633Z,7.20
2018-07-21T07:23:55.652Z,7.10
2018-07-21T07:24:55.660Z,7.50
2018-07-21T07:25:55.673Z,7.20
2018-07-21T07:26:55.715Z,7.10
2018-07-21T07:27:55.708Z,6.90
2018-07-21T07:28:55.725Z,7.20
2018-07-21T07:29:55.752Z,6.80
2018-07-21T07:30:55.775Z,6.90
2018-07-21T07:31:55.783Z,7.30
2018-07-21T07:32:55.852Z,7.10
2018-07-21T07:33:55.870Z,7.30
2018-07-21T07:34:55.837Z,7.10
2018-07-21T07:35:55.853Z,7.00
2018-07-21T07:36:55.868Z,7.10
2018-07-21T07:37:55.890Z,6.80
2018-07-21T07:38:55.952Z,6.70
2018-07-21T07:39:55.965Z,7.70
2018-07-21T07:40:55.932Z,7.00
2018-07-21T07:41:55.952Z,7.40
2018-07-21T07:42:55.980Z,7.20
2018-07-21T07:43:55.989Z,7.20
2018-07-21T07:44:56.009Z,7.40
2018-07-21T07:45:56.079Z,7.10
2018-07-21T07:46:56.043Z,6.90
2018-07-21T07:47:56.071Z,7.00
2018-07-21T07:48:56.080Z,7.40
2018-07-21T07:49:56.094Z,6.70
2018-07-21T07:50:56.118Z,7.20
2018-07-21T07:51:56.182Z,6.80
2018-07-21T07:52:56.151Z,7.00
2018-07-21T07:53:56.175Z,6.90
2018-07-21T07:54:56.200Z,6.70
2018-07-21T07:55:56.207Z,6.50
2018-07-21T07:56:56.233Z,6.80
2018-07-21T07:57:56.390Z,6.80
2018-07-21T07:58:56.259Z,7.00
2018-07-21T07:59:56.278Z,7.10
2018-07-21T08:00:56.295Z,7.10
2018-07-21T08:01:56.316Z,6.80
2018-07-21T08:02:56.339Z,6.90
2018-07-21T08:03:56.358Z,6.70
2018-07-21T08:04:56.371Z,7.10
2018-07-21T08:05:56.393Z,7.50
2018-07-21T08:06:56.405Z,6.70
2018-07-21T08:07:56.430Z,6.90
2018-07-21T08:08:56.448Z,6.50
2018-07-21T08:09:56.512Z,6.90
2018-07-21T08:10:56.503Z,7.00
2018-07-21T08:11:56.502Z,6.90
2018-07-21T08:12:56.520Z,7.00
2018-07-21T08:13:56.540Z,6.90
2018-07-21T08:14:56.558Z,7.30
2018-07-21T08:15:56.675Z,7.50
2018-07-21T08:16:56.592Z,7.20
2018-07-21T08:17:56.610Z,6.80
2018-07-21T08:18:56.629Z,6.80
2018-07-21T08:19:56.643Z,7.00
2018-07-21T08:20:56.665Z,7.00
2018-07-21T08:21:56.813Z,7.20
2018-07-21T08:22:56.706Z,6.50
2018-07-21T08:23:56.730Z,6.80
2018-07-21T08:24:56.746Z,6.90
2018-07-21T08:25:56.764Z,6.80
2018-07-21T08:26:56.783Z,6.60
2018-07-21T08:27:56.854Z,6.60
2018-07-21T08:28:56.835Z,7.20
2018-07-21T08:29:56.836Z,6.60
2018-07-21T08:30:56.869Z,6.80
2018-07-21T08:31:56.875Z,20.10
2018-07-21T08:32:56.892Z,7.00
2018-07-21T08:33:57.005Z,6.80
2018-07-21T08:34:56.936Z,6.60
2018-07-21T08:35:56.957Z,7.30
2018-07-21T08:36:56.973Z,7.10
2018-07-21T08:37:56.997Z,6.70
2018-07-21T08:38:57.007Z,7.10
2018-07-21T08:39:57.087Z,7.40
2018-07-21T08:40:57.050Z,6.60
2018-07-21T08:41:57.071Z,6.90
2018-07-21T08:42:57.091Z,7.00
2018-07-21T08:43:57.165Z,7.00
2018-07-21T08:44:57.127Z,6.80
2018-07-21T08:45:57.154Z,6.90
2018-07-21T08:46:57.166Z,7.00
2018-07-21T08:47:57.178Z,6.90
2018-07-21T08:48:57.206Z,6.60
2018-07-21T08:49:57.309Z,7.00
2018-07-21T08:50:57.243Z,6.80
2018-07-21T08:51:57.267Z,7.50
2018-07-21T08:52:57.283Z,6.80
2018-07-21T08:53:57.305Z,6.60
2018-07-21T08:54:57.321Z,7.00
2018-07-21T08:55:57.404Z,7.00
2018-07-21T08:56:57.363Z,6.60
2018-07-21T08:57:57.445Z,7.20
2018-07-21T08:58:57.397Z,6.80
2018-07-21T08:59:57.416Z,6.30
2018-07-21T09:00:57.435Z,6.80
2018-07-21T09:01:57.457Z,6.70
2018-07-21T09:02:57.481Z,7.10
2018-07-21T09:03:57.547Z,6.50
2018-07-21T09:04:57.513Z,6.70
2018-07-21T09:05:57.537Z,6.60
2018-07-21T09:06:57.560Z,6.30
2018-07-21T09:07:57.577Z,6.30
2018-07-21T09:08:57.649Z,6.30
2018-07-21T09:09:57.664Z,5.90
2018-07-21T09:10:57.634Z,6.70
2018-07-21T09:11:57.661Z,6.30
2018-07-21T09:12:57.677Z,6.20
2018-07-21T09:13:57.698Z,6.80
2018-07-21T09:14:57.725Z,6.40
2018-07-21T09:15:57.823Z,13.10
2018-07-21T09:16:57.759Z,6.20
2018-07-21T09:17:57.780Z,6.10
2018-07-21T09:18:57.801Z,6.40
2018-07-21T09:19:57.815Z,6.10
2018-07-21T09:20:57.849Z,5.90
2018-07-21T09:21:57.879Z,6.10
2018-07-21T09:22:57.875Z,6.20
2018-07-21T09:23:57.945Z,6.70
2018-07-21T09:24:57.932Z,6.50
2018-07-21T09:25:57.962Z,6.50
2018-07-21T09:26:57.957Z,6.30
2018-07-21T09:27:57.990Z,6.20
2018-07-21T09:28:58.002Z,6.20
2018-07-21T09:29:58.033Z,6.30
2018-07-21T09:30:58.052Z,6.40
2018-07-21T09:31:58.073Z,6.20
2018-07-21T09:32:58.096Z,6.40
2018-07-21T09:33:58.109Z,6.10
2018-07-21T09:34:58.125Z,6.80
2018-07-21T09:35:58.151Z,6.40
2018-07-21T09:36:58.177Z,6.60
2018-07-21T09:37:58.197Z,6.10
2018-07-21T09:38:58.212Z,6.40
2018-07-21T09:39:58.284Z,5.90
2018-07-21T09:40:58.251Z,5.90
2018-07-21T09:41:58.272Z,5.70
2018-07-21T09:42:58.295Z,5.90
2018-07-21T09:43:58.310Z,6.00
2018-07-21T09:44:58.338Z,6.40
2018-07-21T09:45:58.357Z,6.00
2018-07-21T09:46:58.438Z,6.20
2018-07-21T09:47:58.393Z,5.90
2018-07-21T09:48:58.417Z,6.20
2018-07-21T09:49:58.441Z,6.00
2018-07-21T09:50:58.469Z,5.80
2018-07-21T09:51:58.540Z,5.80
2018-07-21T09:52:58.561Z,6.20
2018-07-21T09:53:58.532Z,6.00
2018-07-21T09:54:58.548Z,7.50
2018-07-21T09:55:58.653Z,5.40
2018-07-21T09:56:58.595Z,6.10
2018-07-21T09:57:58.664Z,5.60
2018-07-21T09:58:58.694Z,5.50
2018-07-21T09:59:58.658Z,6.00
2018-07-21T10:00:58.678Z,6.10
2018-07-21T10:01:58.704Z,6.00
2018-07-21T10:02:58.722Z,5.80
2018-07-21T10:03:58.739Z,6.20
2018-07-21T10:04:58.767Z,5.90
2018-07-21T10:05:58.786Z,5.70
2018-07-21T10:06:58.802Z,6.10
2018-07-21T10:07:58.828Z,5.50
2018-07-21T10:08:58.855Z,5.40
2018-07-21T10:09:58.869Z,5.10
2018-07-21T10:10:58.891Z,5.10
2018-07-21T10:11:58.915Z,5.70
2018-07-21T10:12:58.930Z,5.30
2018-07-21T10:13:58.949Z,5.40
2018-07-21T10:14:58.977Z,5.70
2018-07-21T10:15:59.003Z,5.30
2018-07-21T10:16:59.022Z,5.40
2018-07-21T10:17:59.040Z,6.20
2018-07-21T10:18:59.063Z,5.80
2018-07-21T10:19:59.077Z,5.70
2018-07-21T10:20:59.103Z,5.50
2018-07-21T10:21:59.212Z,5.10
2018-07-21T10:22:59.141Z,5.50
2018-07-21T10:23:59.176Z,5.40
2018-07-21T10:24:59.191Z,5.60
2018-07-21T10:25:59.213Z,5.60
2018-07-21T10:26:59.228Z,5.30
2018-07-21T10:27:59.253Z,5.60
2018-07-21T10:28:59.280Z,5.40
2018-07-21T10:29:59.333Z,5.10
2018-07-21T10:30:59.326Z,5.30
2018-07-21T10:31:59.352Z,5.60
2018-07-21T10:32:59.364Z,5.40
2018-07-21T10:33:59.443Z,5.60
2018-07-21T10:34:59.407Z,5.30
2018-07-21T10:35:59.570Z,5.20
2018-07-21T10:36:59.449Z,5.50
2018-07-21T10:37:59.488Z,5.50
2018-07-21T10:38:59.493Z,5.30
2018-07-21T10:39:59.571Z,5.50
2018-07-21T10:40:59.548Z,5.20
2018-07-21T10:41:59.631Z,5.20
2018-07-21T10:42:59.591Z,5.30
2018-07-21T10:43:59.604Z,5.20
2018-07-21T10:44:59.639Z,5.10
2018-07-21T10:45:59.706Z,5.50
2018-07-21T10:46:59.675Z,4.80
2018-07-21T10:47:59.755Z,5.20
2018-07-21T10:48:59.721Z,4.80
2018-07-21T10:49:59.743Z,5.30
2018-07-21T10:50:59.769Z,4.90
2018-07-21T10:51:59.839Z,5.10
2018-07-21T10:52:59.810Z,5.10
2018-07-21T10:53:59.833Z,5.30
2018-07-21T10:54:59.859Z,5.40
2018-07-21T10:55:59.879Z,5.30
2018-07-21T10:56:59.906Z,4.70
2018-07-21T10:57:59.920Z,5.40
2018-07-21T10:58:59.944Z,5.00
2018-07-21T10:59:59.964Z,5.10
2018-07-21T11:00:59.987Z,5.40
2018-07-21T11:02:00.005Z,4.80
2018-07-21T11:03:00.039Z,4.90
2018-07-21T11:04:00.118Z,5.30
2018-07-21T11:05:00.077Z,5.30
2018-07-21T11:06:00.099Z,4.90
2018-07-21T11:07:00.121Z,5.00
2018-07-21T11:08:00.192Z,4.80
2018-07-21T11:09:00.168Z,4.90
2018-07-21T11:10:00.192Z,4.60
2018-07-21T11:11:00.217Z,4.50
2018-07-21T11:12:00.271Z,4.80
2018-07-21T11:13:00.261Z,4.60
2018-07-21T11:14:00.277Z,4.70
2018-07-21T11:15:00.355Z,5.00
2018-07-21T11:16:00.381Z,4.90
2018-07-21T11:17:00.355Z,5.00
2018-07-21T11:18:00.375Z,4.50
2018-07-21T11:19:00.403Z,4.90
2018-07-21T11:20:00.422Z,5.10
2018-07-21T11:21:00.448Z,4.90
2018-07-21T11:22:00.501Z,4.90
2018-07-21T11:23:00.488Z,4.40
2018-07-21T11:24:00.516Z,4.90
2018-07-21T11:25:00.541Z,4.80
2018-07-21T11:26:00.562Z,4.70
2018-07-21T11:27:00.580Z,5.40
2018-07-21T11:28:00.656Z,4.70
2018-07-21T11:29:00.624Z,4.70
2018-07-21T11:30:00.652Z,5.20
2018-07-21T11:31:00.673Z,5.20
2018-07-21T11:32:00.696Z,4.90
2018-07-21T11:33:00.718Z,4.90
2018-07-21T11:34:00.792Z,4.70
2018-07-21T11:35:00.764Z,4.60
2018-07-21T11:36:01.151Z,4.90
2018-07-21T11:37:00.811Z,4.80
2018-07-21T11:38:00.839Z,4.70
2018-07-21T11:39:00.864Z,4.80
2018-07-21T11:40:00.937Z,4.80
2018-07-21T11:41:00.906Z,4.80
2018-07-21T11:42:00.924Z,4.50
2018-07-21T11:43:01.031Z,4.70
2018-07-21T11:44:00.967Z,4.90
2018-07-21T11:45:00.991Z,4.90
2018-07-21T11:46:01.018Z,4.90
2018-07-21T11:47:01.042Z,5.30
2018-07-21T11:48:01.060Z,4.90
2018-07-21T11:49:01.176Z,4.60
2018-07-21T11:50:01.111Z,4.50
2018-07-21T11:51:01.164Z,4.80
2018-07-21T11:52:01.162Z,4.50
2018-07-21T11:53:01.187Z,4.40
2018-07-21T11:54:01.201Z,4.70
2018-07-21T11:55:01.293Z,4.10
2018-07-21T11:56:01.266Z,4.10
2018-07-21T11:57:01.273Z,4.10
2018-07-21T11:58:01.344Z,3.90
2018-07-21T11:59:01.364Z,4.00
2018-07-21T12:00:01.345Z,3.90
2018-07-21T12:01:01.372Z,4.00
2018-07-21T12:02:01.388Z,3.90
2018-07-21T12:03:01.422Z,4.20
2018-07-21T12:04:01.436Z,4.00
2018-07-21T12:05:01.460Z,3.70
2018-07-21T12:06:01.487Z,3.50
2018-07-21T12:07:01.513Z,4.00
2018-07-21T12:08:01.534Z,3.70
2018-07-21T12:09:01.564Z,4.00
2018-07-21T12:10:01.647Z,3.90
2018-07-21T12:11:01.599Z,3.50
2018-07-21T12:12:01.627Z,4.00
2018-07-21T12:13:01.661Z,4.40
2018-07-21T12:14:01.676Z,3.80
2018-07-21T12:15:01.698Z,4.20
2018-07-21T12:16:01.773Z,5.70
2018-07-21T12:17:01.739Z,6.00
2018-07-21T12:18:01.769Z,6.00
2018-07-21T12:19:01.794Z,9.00
2018-07-21T12:20:01.893Z,7.00
2018-07-21T12:21:01.844Z,5.90
2018-07-21T12:22:01.917Z,6.00
2018-07-21T12:23:01.890Z,5.90
2018-07-21T12:24:01.899Z,7.80
2018-07-21T12:25:01.927Z,7.60
2018-07-21T12:26:01.973Z,6.90
2018-07-21T12:27:01.974Z,7.60
2018-07-21T12:28:01.996Z,5.70
2018-07-21T12:29:02.025Z,5.60
2018-07-21T12:30:02.049Z,5.10
2018-07-21T12:31:02.069Z,4.30
2018-07-21T12:32:02.126Z,4.40
2018-07-21T12:33:02.111Z,4.40
2018-07-21T12:34:02.188Z,4.30
2018-07-21T12:35:02.159Z,4.00
2018-07-21T12:36:02.188Z,4.10
2018-07-21T12:37:02.208Z,3.70
2018-07-21T12:38:02.242Z,3.40
2018-07-21T12:39:02.254Z,3.50
2018-07-21T12:40:02.350Z,3.80
2018-07-21T12:41:02.306Z,3.30
2018-07-21T12:42:02.321Z,3.20
2018-07-21T12:43:02.356Z,3.40
2018-07-21T12:44:02.377Z,3.20
2018-07-21T12:45:02.402Z,3.00
2018-07-21T12:46:02.495Z,3.50
2018-07-21T12:47:02.454Z,3.40
2018-07-21T12:48:02.477Z,3.10
2018-07-21T12:49:02.497Z,3.50
2018-07-21T12:50:02.519Z,3.00
2018-07-21T12:51:02.590Z,3.20
2018-07-21T12:52:02.559Z,3.30
2018-07-21T12:53:02.592Z,3.00
2018-07-21T12:54:02.615Z,3.00
2018-07-21T12:55:02.637Z,3.10
2018-07-21T12:56:02.661Z,3.30
2018-07-21T12:57:02.683Z,3.10
2018-07-21T12:58:02.755Z,3.00
2018-07-21T12:59:02.737Z,2.90
2018-07-21T13:00:02.756Z,2.90
2018-07-21T13:01:02.780Z,3.00
2018-07-21T13:02:02.804Z,3.10
2018-07-21T13:03:02.826Z,3.00
2018-07-21T13:04:02.909Z,6.70
2018-07-21T13:05:02.876Z,3.00
2018-07-21T13:06:02.896Z,3.20
2018-07-21T13:07:02.921Z,2.80
2018-07-21T13:08:02.947Z,3.00
2018-07-21T13:09:02.972Z,2.60
2018-07-21T13:10:03.051Z,3.00
2018-07-21T13:11:03.014Z,2.60
2018-07-21T13:12:03.041Z,2.70
2018-07-21T13:13:03.064Z,2.60
2018-07-21T13:14:03.082Z,3.00
2018-07-21T13:15:03.112Z,8.20
2018-07-21T13:16:03.216Z,3.30
2018-07-21T13:17:03.157Z,2.50
2018-07-21T13:18:03.177Z,2.40
2018-07-21T13:19:03.205Z,3.60